Time;durP1;ratioP1;P1;durP2;ratioP2;P2;SDS_P1;SDS_P2;PMS_P1;PMS_P2;Temp;Humidity;BMP_temperature;BMP_pressure;BME280_temperature;BME280_humidity;BME280_pressure;Samples;Min_cycle;Max_cycle;Signal;HPM_P1;HPM_P2
2020/12/30 00:01:24;;;;;;;15.10;8.43;;;1.70;99.90;;;;;;5047056;28;20463;-51
2020/12/30 00:03:50;;;;;;;11.83;8.40;;;1.70;99.90;;;;;;5048085;28;20509;-51
2020/12/30 00:06:18;;;;;;;13.97;8.57;;;1.60;99.90;;;;;;5040625;28;20993;-52
2020/12/30 00:08:44;;;;;;;13.50;8.60;;;1.50;99.90;;;;;;5048113;28;20233;-51
2020/12/30 00:11:11;;;;;;;10.63;8.33;;;1.60;99.90;;;;;;5047025;28;20463;-51
2020/12/30 00:13:38;;;;;;;14.47;7.77;;;1.80;99.90;;;;;;5048423;28;20486;-51
2020/12/30 00:16:04;;;;;;;10.40;7.33;;;1.90;99.90;;;;;;5045485;28;21009;-51
2020/12/30 00:18:31;;;;;;;9.43;6.00;;;1.90;99.90;;;;;;5048287;28;20455;-51
2020/12/30 00:20:58;;;;;;;14.10;8.20;;;2.00;99.90;;;;;;5048423;28;20444;-51
2020/12/30 00:23:25;;;;;;;9.73;6.30;;;1.90;99.90;;;;;;5046978;28;20462;-51
2020/12/30 00:25:52;;;;;;;10.23;6.70;;;2.00;99.90;;;;;;5048952;28;20463;-51
2020/12/30 00:28:18;;;;;;;9.47;6.87;;;2.10;99.90;;;;;;5047801;28;20483;-51
2020/12/30 00:30:46;;;;;;;12.13;7.40;;;2.20;99.90;;;;;;5047887;28;20486;-51
2020/12/30 00:33:13;;;;;;;15.30;6.70;;;2.20;99.90;;;;;;5047899;28;20521;-51
2020/12/30 00:35:40;;;;;;;8.50;6.33;;;2.20;99.90;;;;;;5050368;28;20486;-51
2020/12/30 00:38:06;;;;;;;9.00;6.10;;;2.30;99.90;;;;;;5051733;28;20968;-54
2020/12/30 00:40:33;;;;;;;9.80;6.27;;;2.30;99.90;;;;;;5052503;28;20451;-54
2020/12/30 00:42:59;;;;;;;9.17;6.00;;;2.10;99.90;;;;;;5052128;28;20474;-53
2020/12/30 00:45:26;;;;;;;9.03;5.83;;;2.00;99.90;;;;;;5051634;28;20597;-54
2020/12/30 00:47:53;;;;;;;10.37;5.83;;;1.90;99.90;;;;;;5050346;28;20482;-53
2020/12/30 00:50:20;;;;;;;9.67;5.40;;;2.00;99.90;;;;;;5049391;28;20991;-53
2020/12/30 00:52:49;;;;;;;8.90;6.00;;;2.00;99.90;;;;;;5050467;28;20468;-54
2020/12/30 00:55:16;;;;;;;12.27;5.63;;;1.90;99.90;;;;;;5051126;28;20977;-54
2020/12/30 00:57:42;;;;;;;8.50;5.67;;;1.80;99.90;;;;;;5051396;28;20470;-54
2020/12/30 01:00:09;;;;;;;8.83;6.00;;;1.70;99.90;;;;;;5051941;28;20463;-54
2020/12/30 01:02:35;;;;;;;9.27;5.70;;;1.50;99.90;;;;;;5054569;28;20467;-54
2020/12/30 01:05:03;;;;;;;13.70;6.90;;;1.50;99.90;;;;;;5050969;28;20533;-54
2020/12/30 01:07:29;;;;;;;10.50;7.13;;;1.70;99.90;;;;;;5051093;28;20494;-53
2020/12/30 01:09:56;;;;;;;9.80;6.87;;;1.70;99.90;;;;;;5050477;28;20872;-54
2020/12/30 01:12:22;;;;;;;10.90;6.90;;;1.60;99.90;;;;;;5050607;28;20474;-53
2020/12/30 01:14:49;;;;;;;14.40;6.97;;;1.50;99.90;;;;;;5050948;28;20486;-54
2020/12/30 01:17:15;;;;;;;11.30;6.93;;;1.60;99.90;;;;;;5051183;28;20465;-54
2020/12/30 01:19:42;;;;;;;10.70;6.73;;;1.50;99.90;;;;;;5050070;28;20456;-53
2020/12/30 01:22:09;;;;;;;10.73;5.93;;;1.50;99.90;;;;;;5049415;28;20890;-53
2020/12/30 01:24:36;;;;;;;10.80;6.90;;;1.40;99.90;;;;;;5052075;28;20909;-54
2020/12/30 01:27:02;;;;;;;10.90;7.13;;;1.30;99.90;;;;;;5051941;28;20486;-54
2020/12/30 01:29:29;;;;;;;10.90;7.07;;;1.10;99.90;;;;;;5051397;28;20478;-53
2020/12/30 01:31:55;;;;;;;10.90;6.90;;;1.00;99.90;;;;;;5049806;28;20466;-53
2020/12/30 01:34:22;;;;;;;12.40;7.53;;;0.90;99.90;;;;;;5047423;28;21166;-53
2020/12/30 01:36:53;;;;;;;12.53;7.17;;;0.80;99.90;;;;;;5050619;28;20467;-54
2020/12/30 01:39:21;;;;;;;11.17;6.93;;;1.20;99.90;;;;;;5050826;28;20558;-54
2020/12/30 01:41:48;;;;;;;12.90;7.27;;;1.20;99.90;;;;;;5050813;28;20494;-54
2020/12/30 01:44:15;;;;;;;10.80;7.37;;;1.00;99.90;;;;;;5048624;28;20475;-54
2020/12/30 01:46:43;;;;;;;11.53;7.00;;;0.90;99.90;;;;;;5051663;28;20507;-54
2020/12/30 01:49:13;;;;;;;9.77;6.87;;;0.90;99.90;;;;;;5050570;28;20486;-54
2020/12/30 01:51:41;;;;;;;12.70;7.70;;;1.00;99.90;;;;;;5049196;28;20466;-53
2020/12/30 01:54:10;;;;;;;12.70;7.80;;;1.00;99.90;;;;;;5050905;28;20459;-53
2020/12/30 01:56:37;;;;;;;9.83;7.23;;;1.10;99.90;;;;;;5050534;28;20831;-54
2020/12/30 01:59:08;;;;;;;13.03;6.90;;;1.00;99.90;;;;;;5049373;28;20520;-54
2020/12/30 02:01:37;;;;;;;11.60;7.03;;;0.90;99.90;;;;;;5049592;28;20908;-53
2020/12/30 02:04:10;;;;;;;10.23;6.97;;;0.80;99.90;;;;;;5043204;28;20463;-54
2020/12/30 02:06:37;;;;;;;13.23;7.13;;;0.70;99.90;;;;;;5050246;28;20470;-53
2020/12/30 02:09:06;;;;;;;10.73;6.47;;;0.70;99.90;;;;;;5050719;28;20467;-54
2020/12/30 02:11:33;;;;;;;10.10;6.53;;;0.70;99.90;;;;;;5048313;28;21145;-54
2020/12/30 02:14:03;;;;;;;10.67;7.00;;;0.70;99.90;;;;;;5048795;28;20482;-53
2020/12/30 02:16:29;;;;;;;8.20;6.20;;;0.80;99.90;;;;;;5047477;28;20489;-54
2020/12/30 02:18:57;;;;;;;8.63;5.47;;;0.90;99.90;;;;;;5046331;28;20467;-53
2020/12/30 02:21:24;;;;;;;8.07;5.40;;;0.80;99.90;;;;;;5047890;28;20463;-53
2020/12/30 02:23:52;;;;;;;8.70;6.83;;;0.90;99.90;;;;;;5050877;28;20446;-54
2020/12/30 02:26:20;;;;;;;7.47;5.37;;;0.90;99.90;;;;;;5050089;28;20512;-54
2020/12/30 02:28:46;;;;;;;8.07;5.53;;;0.80;99.90;;;;;;5050140;28;20551;-53
2020/12/30 02:31:13;;;;;;;8.83;5.80;;;0.80;99.90;;;;;;5049152;28;20458;-54
2020/12/30 02:33:39;;;;;;;8.30;5.70;;;0.60;99.90;;;;;;5050108;28;20463;-54
2020/12/30 02:36:06;;;;;;;9.40;5.90;;;0.40;99.90;;;;;;5048440;28;20901;-54
2020/12/30 02:38:32;;;;;;;8.53;5.60;;;0.40;99.90;;;;;;5049405;28;20473;-54
2020/12/30 02:41:00;;;;;;;9.37;5.70;;;0.30;99.90;;;;;;5049800;28;20853;-54
2020/12/30 02:43:27;;;;;;;8.70;5.70;;;0.30;99.90;;;;;;5049850;28;20463;-51
2020/12/30 02:45:55;;;;;;;10.47;5.40;;;0.30;99.90;;;;;;5049368;28;20898;-51
2020/12/30 02:48:21;;;;;;;8.50;5.40;;;0.30;99.90;;;;;;5049798;28;20497;-51
2020/12/30 02:50:48;;;;;;;7.83;5.70;;;0.20;99.90;;;;;;5048910;28;20463;-51
2020/12/30 02:53:15;;;;;;;7.90;5.53;;;0.20;99.90;;;;;;5040686;28;20477;-51
2020/12/30 02:55:41;;;;;;;11.93;6.17;;;0.20;99.90;;;;;;5048763;28;20483;-51
2020/12/30 02:58:08;;;;;;;7.93;5.77;;;0.30;99.90;;;;;;5050628;28;20447;-51
2020/12/30 03:00:35;;;;;;;8.10;5.03;;;0.30;99.90;;;;;;5043590;28;20467;-51
2020/12/30 03:03:02;;;;;;;9.80;5.97;;;0.20;99.90;;;;;;5049532;28;20462;-51
2020/12/30 03:05:28;;;;;;;8.37;5.47;;;0.20;99.90;;;;;;5049512;28;20483;-51
2020/12/30 03:07:55;;;;;;;8.83;5.43;;;0.40;99.90;;;;;;5050399;28;21061;-51
2020/12/30 03:10:21;;;;;;;9.17;5.60;;;0.60;99.90;;;;;;5049064;28;20990;-51
2020/12/30 03:12:48;;;;;;;23.47;5.60;;;0.80;99.90;;;;;;5048904;28;20467;-52
2020/12/30 03:15:15;;;;;;;11.07;4.87;;;0.70;99.90;;;;;;5048985;28;20485;-51
2020/12/30 03:17:42;;;;;;;12.30;5.00;;;0.80;99.90;;;;;;5050236;28;21143;-51
2020/12/30 03:20:09;;;;;;;7.30;4.97;;;0.90;99.90;;;;;;5047702;28;20523;-51
2020/12/30 03:22:35;;;;;;;12.63;5.30;;;0.80;99.90;;;;;;5040496;28;20469;-51
2020/12/30 03:25:02;;;;;;;14.13;5.63;;;0.80;99.90;;;;;;5049180;28;21161;-51
2020/12/30 03:27:29;;;;;;;7.40;4.93;;;0.70;99.90;;;;;;5048660;28;20547;-51
2020/12/30 03:29:55;;;;;;;9.20;5.20;;;0.50;99.90;;;;;;5048156;28;20463;-51
2020/12/30 03:32:22;;;;;;;7.73;4.73;;;0.40;99.90;;;;;;5046898;28;20469;-51
2020/12/30 03:34:49;;;;;;;7.10;4.97;;;0.70;99.90;;;;;;5049297;28;20482;-51
2020/12/30 03:37:16;;;;;;;7.33;5.43;;;0.60;99.90;;;;;;5049941;28;20447;-51
2020/12/30 03:39:42;;;;;;;7.67;4.50;;;0.50;99.90;;;;;;5047039;28;20494;-51
2020/12/30 03:42:08;;;;;;;7.53;5.00;;;0.80;99.90;;;;;;5047786;28;20480;-51
2020/12/30 03:44:35;;;;;;;5.63;4.57;;;0.70;99.90;;;;;;5049523;28;20481;-51
2020/12/30 03:47:02;;;;;;;7.63;4.40;;;0.50;99.90;;;;;;5049106;28;20488;-51
2020/12/30 03:49:28;;;;;;;7.90;5.00;;;0.30;99.90;;;;;;5048896;28;20465;-51
2020/12/30 03:51:59;;;;;;;7.80;4.40;;;0.40;99.90;;;;;;5048370;28;20458;-51
2020/12/30 03:54:26;;;;;;;7.57;4.10;;;0.40;99.90;;;;;;5049349;28;21045;-51
2020/12/30 03:56:52;;;;;;;5.83;4.30;;;0.40;99.90;;;;;;5048175;28;20477;-51
2020/12/30 03:59:19;;;;;;;6.67;4.17;;;0.40;99.90;;;;;;5045288;28;20492;-51
2020/12/30 04:01:45;;;;;;;5.77;3.47;;;0.60;99.90;;;;;;5048896;28;20968;-51
2020/12/30 04:04:13;;;;;;;6.43;3.90;;;0.70;99.90;;;;;;5046819;28;20494;-51
2020/12/30 04:06:40;;;;;;;5.13;3.80;;;0.50;99.90;;;;;;5049034;28;20465;-51
2020/12/30 04:09:08;;;;;;;6.47;4.60;;;0.70;99.90;;;;;;5052600;28;20528;-51
2020/12/30 04:11:34;;;;;;;8.30;4.03;;;0.60;99.90;;;;;;5051530;28;20904;-51
2020/12/30 04:14:01;;;;;;;6.80;4.50;;;0.60;99.90;;;;;;5050351;28;20520;-52
2020/12/30 04:16:27;;;;;;;6.53;4.50;;;0.70;99.90;;;;;;5053420;28;21034;-51
2020/12/30 04:18:54;;;;;;;6.03;4.23;;;0.80;99.90;;;;;;5053279;28;20451;-51
2020/12/30 04:21:22;;;;;;;7.07;4.40;;;0.70;99.90;;;;;;5051860;28;20489;-51
2020/12/30 04:23:49;;;;;;;7.80;4.33;;;0.70;99.90;;;;;;5050843;28;20466;-51
2020/12/30 04:26:16;;;;;;;5.33;3.93;;;0.80;99.90;;;;;;5051000;28;20836;-51
2020/12/30 04:28:43;;;;;;;5.10;4.10;;;0.70;99.90;;;;;;5051111;28;20483;-51
2020/12/30 04:31:10;;;;;;;6.40;4.23;;;0.70;99.90;;;;;;5050152;28;20463;-51
2020/12/30 04:33:37;;;;;;;6.10;4.00;;;0.50;99.90;;;;;;5052193;28;20477;-51
2020/12/30 04:36:04;;;;;;;6.07;4.00;;;0.50;99.90;;;;;;5053153;28;21012;-51
2020/12/30 04:38:31;;;;;;;5.70;3.70;;;0.50;99.90;;;;;;5051609;28;20458;-51
2020/12/30 04:40:59;;;;;;;7.07;4.20;;;0.60;99.90;;;;;;5052056;28;20593;-51
2020/12/30 04:43:28;;;;;;;8.57;4.20;;;0.50;99.90;;;;;;5051694;28;20550;-51
2020/12/30 04:45:56;;;;;;;7.67;4.50;;;0.40;99.90;;;;;;5050426;28;20517;-51
2020/12/30 04:48:25;;;;;;;6.37;3.90;;;0.50;99.90;;;;;;5051598;28;20573;-51
2020/12/30 04:50:52;;;;;;;5.93;4.60;;;0.60;99.90;;;;;;5052448;28;21137;-51
2020/12/30 04:53:21;;;;;;;6.33;4.67;;;0.40;99.90;;;;;;5050700;28;20469;-51
2020/12/30 04:55:49;;;;;;;7.40;4.20;;;0.50;99.90;;;;;;5051133;28;20576;-51
2020/12/30 04:58:17;;;;;;;6.93;4.20;;;0.40;99.90;;;;;;5052712;28;20586;-51
2020/12/30 05:00:46;;;;;;;5.73;4.23;;;0.20;99.90;;;;;;5052382;28;21059;-51
2020/12/30 05:03:14;;;;;;;7.23;4.60;;;0.20;99.90;;;;;;5051577;28;20545;-51
2020/12/30 05:05:42;;;;;;;7.17;4.23;;;0.30;99.90;;;;;;5050758;28;20490;-51
2020/12/30 05:08:10;;;;;;;7.83;4.60;;;0.20;99.90;;;;;;5050741;28;20482;-51
2020/12/30 05:10:38;;;;;;;8.27;4.70;;;0.20;99.90;;;;;;5044685;28;20528;-51
2020/12/30 05:13:04;;;;;;;6.93;4.77;;;0.10;99.90;;;;;;5045973;28;20523;-52
2020/12/30 05:15:31;;;;;;;7.00;4.70;;;0.20;99.90;;;;;;5046299;28;22045;-51
2020/12/30 05:18:03;;;;;;;8.60;4.73;;;0.00;99.90;;;;;;5046865;28;21103;-51
2020/12/30 05:20:35;;;;;;;5.00;4.20;;;0.20;99.90;;;;;;5045863;28;20463;-51
2020/12/30 05:23:02;;;;;;;7.80;3.93;;;0.30;99.90;;;;;;5046469;28;20463;-51
2020/12/30 05:25:28;;;;;;;5.97;4.20;;;0.10;99.90;;;;;;5045890;28;20509;-51
2020/12/30 05:27:55;;;;;;;4.77;3.60;;;0.00;99.90;;;;;;5045903;28;20540;-52
2020/12/30 05:30:23;;;;;;;8.03;4.60;;;0.00;99.90;;;;;;5045486;28;20466;-51
2020/12/30 05:32:52;;;;;;;7.17;4.00;;;0.00;99.90;;;;;;5049033;28;20506;-51
2020/12/30 05:35:21;;;;;;;5.43;4.07;;;0.00;99.90;;;;;;5046262;28;20484;-52
2020/12/30 05:37:48;;;;;;;7.63;4.17;;;0.10;99.90;;;;;;5045095;28;20541;-51
2020/12/30 05:40:23;;;;;;;7.00;4.00;;;0.20;99.90;;;;;;5046898;28;20461;-51
2020/12/30 05:42:50;;;;;;;5.50;3.60;;;0.30;99.90;;;;;;5045975;28;20528;-51
2020/12/30 05:45:18;;;;;;;4.40;3.40;;;0.40;99.90;;;;;;5045826;28;20475;-51
2020/12/30 05:47:45;;;;;;;6.00;4.67;;;0.40;99.90;;;;;;5045591;28;20509;-51
2020/12/30 05:50:12;;;;;;;6.47;4.47;;;0.50;99.90;;;;;;5044608;28;20470;-51
2020/12/30 05:52:40;;;;;;;7.53;4.77;;;0.60;99.90;;;;;;5045158;28;20543;-51
2020/12/30 05:55:09;;;;;;;9.60;4.40;;;0.60;99.90;;;;;;5044955;28;21083;-51
2020/12/30 05:57:37;;;;;;;6.20;4.10;;;0.50;99.90;;;;;;5047681;28;20458;-51
2020/12/30 06:00:06;;;;;;;6.57;4.00;;;0.50;99.90;;;;;;5044310;28;21169;-51
2020/12/30 06:02:33;;;;;;;6.70;3.97;;;0.40;99.90;;;;;;5045474;28;20510;-51
2020/12/30 06:05:10;;;;;;;6.43;4.27;;;0.20;99.90;;;;;;5045484;28;20884;-51
2020/12/30 06:07:38;;;;;;;5.10;3.97;;;0.30;99.90;;;;;;5044529;28;20482;-51
2020/12/30 06:10:07;;;;;;;9.20;4.40;;;0.50;99.90;;;;;;5045883;28;20496;-51
2020/12/30 06:12:39;;;;;;;6.23;4.00;;;0.60;99.90;;;;;;5047941;28;20517;-51
2020/12/30 06:15:06;;;;;;;7.40;4.30;;;0.60;99.90;;;;;;5045771;28;20482;-51
2020/12/30 06:17:32;;;;;;;5.60;3.70;;;0.50;99.90;;;;;;5045683;28;20455;-51
2020/12/30 06:19:59;;;;;;;5.47;3.67;;;0.30;99.90;;;;;;5046732;28;20463;-51
2020/12/30 06:22:26;;;;;;;6.30;3.60;;;0.20;99.90;;;;;;5045547;28;20466;-51
2020/12/30 06:24:55;;;;;;;6.03;3.50;;;0.50;99.90;;;;;;5044866;28;20885;-51
2020/12/30 06:27:24;;;;;;;7.43;4.00;;;0.50;99.90;;;;;;5044538;28;20479;-51
2020/12/30 06:29:55;;;;;;;5.30;3.70;;;0.40;99.90;;;;;;5044362;28;20465;-51
2020/12/30 06:32:26;;;;;;;5.50;3.60;;;0.40;99.90;;;;;;5043917;28;20880;-51
2020/12/30 06:34:52;;;;;;;5.77;3.33;;;0.50;99.90;;;;;;5045237;28;20483;-51
2020/12/30 06:37:30;;;;;;;6.70;3.50;;;0.50;99.90;;;;;;5044436;28;20462;-51
2020/12/30 06:40:23;;;;;;;4.33;3.37;;;0.40;99.90;;;;;;5045252;28;20906;-51
2020/12/30 06:42:55;;;;;;;6.33;3.30;;;0.50;99.90;;;;;;5047074;28;20475;-50
2020/12/30 06:45:51;;;;;;;4.80;3.43;;;0.60;99.90;;;;;;5048678;28;20950;-51
2020/12/30 06:48:19;;;;;;;8.17;3.60;;;0.50;99.90;;;;;;5047872;28;20484;-51
2020/12/30 06:50:45;;;;;;;5.23;3.80;;;0.30;99.90;;;;;;5047718;28;20465;-51
2020/12/30 06:53:30;;;;;;;7.83;5.00;;;0.20;99.90;;;;;;5048768;28;20532;-51
2020/12/30 06:55:58;;;;;;;6.80;4.20;;;0.20;99.90;;;;;;5048684;28;20493;-51
2020/12/30 06:58:45;;;;;;;6.47;4.17;;;0.10;99.90;;;;;;5048904;28;20467;-51
2020/12/30 07:01:12;;;;;;;7.20;4.43;;;0.30;99.90;;;;;;5048657;28;20458;-51
2020/12/30 07:03:38;;;;;;;7.03;4.40;;;0.50;99.90;;;;;;5045123;28;20466;-51
2020/12/30 07:06:24;;;;;;;5.73;3.80;;;0.40;99.90;;;;;;5046161;28;20512;-51
2020/12/30 07:08:51;;;;;;;12.30;3.77;;;0.50;99.90;;;;;;5042797;28;20519;-51
2020/12/30 07:11:53;;;;;;;7.03;4.23;;;0.50;99.90;;;;;;5044053;28;20473;-51
2020/12/30 07:14:22;;;;;;;7.90;4.30;;;0.60;99.90;;;;;;5045075;28;20995;-51
2020/12/30 07:16:51;;;;;;;5.30;4.00;;;0.50;99.90;;;;;;5044509;28;20463;-51
2020/12/30 07:19:19;;;;;;;5.10;4.10;;;0.60;99.90;;;;;;5047710;28;20459;-51
2020/12/30 07:21:55;;;;;;;6.57;4.13;;;0.80;99.90;;;;;;5050457;28;20458;-51
2020/12/30 07:24:24;;;;;;;5.70;4.20;;;0.80;99.90;;;;;;5043699;28;20519;-51
2020/12/30 07:26:53;;;;;;;5.37;3.83;;;0.70;99.90;;;;;;5044745;28;20467;-51
2020/12/30 07:29:21;;;;;;;9.27;5.43;;;0.70;99.90;;;;;;5055373;28;20487;-51
2020/12/30 07:31:50;;;;;;;8.07;5.70;;;0.60;99.90;;;;;;5050094;28;20456;-51
2020/12/30 07:34:19;;;;;;;5.30;4.20;;;0.60;99.90;;;;;;5045928;28;20473;-51
2020/12/30 07:36:46;;;;;;;6.53;3.93;;;0.70;99.90;;;;;;5044926;28;20525;-51
2020/12/30 07:39:13;;;;;;;4.70;3.30;;;0.70;99.90;;;;;;5049507;28;20462;-51
2020/12/30 07:41:44;;;;;;;3.57;2.47;;;0.80;99.90;;;;;;5048547;28;20824;-51
2020/12/30 07:44:13;;;;;;;3.30;2.43;;;0.80;99.90;;;;;;5053842;28;20462;-51
2020/12/30 07:46:43;;;;;;;6.03;2.97;;;0.80;99.90;;;;;;5054488;28;20546;-51
2020/12/30 07:49:14;;;;;;;4.40;3.07;;;0.90;99.90;;;;;;5054081;28;20483;-51
2020/12/30 07:51:48;;;;;;;5.17;3.23;;;1.00;99.90;;;;;;5053256;28;20462;-51
2020/12/30 07:54:16;;;;;;;3.77;3.00;;;1.30;99.90;;;;;;5051079;28;20504;-51
2020/12/30 07:56:42;;;;;;;3.23;2.77;;;1.30;99.90;;;;;;5054095;28;20459;-51
2020/12/30 07:59:18;;;;;;;4.70;3.30;;;1.30;99.90;;;;;;5052063;28;20952;-51
2020/12/30 08:01:57;;;;;;;4.10;3.27;;;1.20;99.90;;;;;;5050602;28;20450;-51
2020/12/30 08:04:24;;;;;;;5.07;3.17;;;1.30;99.90;;;;;;5052569;28;20490;-51
2020/12/30 08:06:51;;;;;;;7.00;3.73;;;1.40;99.90;;;;;;5053506;28;20451;-51
2020/12/30 08:09:18;;;;;;;4.57;3.40;;;1.40;99.90;;;;;;5053428;28;20482;-51
2020/12/30 08:11:48;;;;;;;6.53;3.43;;;1.50;99.90;;;;;;5051657;28;20492;-51
2020/12/30 08:14:15;;;;;;;4.47;3.53;;;1.60;99.90;;;;;;5052586;28;20960;-51
2020/12/30 08:16:51;;;;;;;5.93;4.53;;;1.40;99.90;;;;;;5051312;28;20519;-51
2020/12/30 08:19:28;;;;;;;5.40;4.20;;;1.30;99.90;;;;;;5051825;28;20447;-51
2020/12/30 08:22:16;;;;;;;7.00;4.30;;;1.30;99.90;;;;;;5053145;28;20454;-51
2020/12/30 08:24:45;;;;;;;10.60;4.90;;;1.30;99.90;;;;;;5046528;28;20505;-51
2020/12/30 08:27:13;;;;;;;7.50;4.67;;;1.20;99.90;;;;;;5049954;28;20439;-51
2020/12/30 08:29:43;;;;;;;7.90;4.20;;;1.20;99.90;;;;;;5045123;28;20455;-50
2020/12/30 08:32:18;;;;;;;4.77;3.53;;;1.20;99.90;;;;;;5051867;28;20455;-51
2020/12/30 08:34:54;;;;;;;5.80;4.50;;;1.10;99.90;;;;;;5053007;28;20471;-51
2020/12/30 08:37:28;;;;;;;7.50;4.90;;;1.30;99.90;;;;;;5053185;28;20484;-51
2020/12/30 08:40:07;;;;;;;11.73;6.10;;;1.30;99.90;;;;;;5052151;28;20455;-51
2020/12/30 08:42:55;;;;;;;11.13;5.80;;;1.30;99.90;;;;;;5049517;28;20453;-51
2020/12/30 08:45:25;;;;;;;10.67;6.47;;;1.30;99.90;;;;;;5052522;28;20893;-51
2020/12/30 08:47:55;;;;;;;12.60;6.73;;;1.30;99.90;;;;;;5052212;28;20475;-50
2020/12/30 08:50:24;;;;;;;12.43;6.30;;;1.30;99.90;;;;;;5042951;28;20452;-50
2020/12/30 08:52:51;;;;;;;14.40;6.37;;;1.30;99.90;;;;;;5049928;28;20524;-50
2020/12/30 08:55:17;;;;;;;11.10;6.03;;;1.60;99.90;;;;;;5049981;28;20512;-50
2020/12/30 08:57:45;;;;;;;10.47;5.70;;;1.70;99.90;;;;;;5051193;28;20505;-51
2020/12/30 09:00:15;;;;;;;10.97;5.20;;;1.80;99.90;;;;;;5047693;28;20470;-51
2020/12/30 09:02:42;;;;;;;12.87;4.73;;;2.00;99.90;;;;;;5052431;28;20482;-50
2020/12/30 09:05:09;;;;;;;8.10;4.77;;;2.10;99.90;;;;;;5049788;28;20471;-51
2020/12/30 09:07:37;;;;;;;9.27;4.93;;;2.20;99.90;;;;;;5047576;28;20491;-51
2020/12/30 09:10:07;;;;;;;5.60;4.53;;;2.50;99.90;;;;;;5050380;28;20461;-50
2020/12/30 09:12:34;;;;;;;4.70;3.47;;;2.70;99.90;;;;;;5049237;28;20454;-50
2020/12/30 09:15:00;;;;;;;5.07;3.47;;;3.00;99.90;;;;;;5043362;28;20478;-50
2020/12/30 09:17:27;;;;;;;4.40;2.77;;;3.30;99.90;;;;;;5052012;28;20448;-50
2020/12/30 09:20:08;;;;;;;4.50;2.87;;;3.20;99.90;;;;;;5051406;28;20451;-50
2020/12/30 09:22:36;;;;;;;8.23;3.50;;;3.00;99.90;;;;;;5046822;28;20455;-50
2020/12/30 09:25:03;;;;;;;5.90;3.40;;;2.90;99.90;;;;;;5051660;28;20598;-49
2020/12/30 09:27:33;;;;;;;4.13;3.20;;;2.90;99.90;;;;;;5049197;28;20459;-53
2020/12/30 09:30:13;;;;;;;7.20;3.30;;;3.10;99.90;;;;;;5051054;28;20468;-53
2020/12/30 09:32:41;;;;;;;5.70;3.77;;;3.20;99.90;;;;;;5049758;28;20506;-53
2020/12/30 09:35:09;;;;;;;5.03;3.60;;;3.50;99.90;;;;;;5050250;28;20708;-53
2020/12/30 09:37:38;;;;;;;5.43;3.53;;;3.60;99.90;;;;;;5049960;28;20514;-53
2020/12/30 09:40:10;;;;;;;6.13;3.70;;;3.80;99.90;;;;;;5050017;28;20456;-53
2020/12/30 09:42:37;;;;;;;4.70;3.80;;;3.90;99.90;;;;;;5049182;28;20463;-53
2020/12/30 09:45:06;;;;;;;11.67;3.67;;;4.10;99.90;;;;;;5051989;28;20475;-53
2020/12/30 09:47:33;;;;;;;8.60;3.53;;;4.20;99.90;;;;;;5047805;28;20462;-53
2020/12/30 09:50:00;;;;;;;3.93;3.10;;;4.40;99.90;;;;;;5050642;28;20460;-53
2020/12/30 09:52:26;;;;;;;7.33;2.93;;;4.50;99.90;;;;;;5049198;28;20976;-53
2020/12/30 09:54:53;;;;;;;3.67;2.60;;;4.70;99.90;;;;;;5051517;28;20533;-53
2020/12/30 09:57:20;;;;;;;3.00;2.33;;;4.70;99.90;;;;;;5050435;28;20476;-53
2020/12/30 09:59:46;;;;;;;5.10;3.27;;;4.80;99.90;;;;;;5043944;28;20468;-53
2020/12/30 10:02:13;;;;;;;3.57;2.80;;;4.90;99.90;;;;;;5050527;28;20463;-53
2020/12/30 10:04:40;;;;;;;3.20;2.10;;;4.90;99.90;;;;;;5049662;28;20490;-53
2020/12/30 10:07:07;;;;;;;2.40;2.20;;;4.90;99.90;;;;;;5049263;28;20469;-53
2020/12/30 10:09:34;;;;;;;4.47;2.67;;;5.10;99.90;;;;;;5049104;28;20496;-53
2020/12/30 10:12:01;;;;;;;5.23;2.80;;;5.20;99.90;;;;;;5048833;28;20456;-53
2020/12/30 10:14:27;;;;;;;6.10;2.80;;;5.00;99.90;;;;;;5050731;28;20876;-53
2020/12/30 10:16:54;;;;;;;8.20;3.03;;;4.50;99.90;;;;;;5048838;28;20957;-53
2020/12/30 10:19:20;;;;;;;6.53;2.80;;;4.40;99.90;;;;;;5051069;28;20498;-53
2020/12/30 10:21:47;;;;;;;5.43;2.90;;;4.70;99.90;;;;;;5050418;28;20517;-53
2020/12/30 10:24:13;;;;;;;7.80;2.70;;;4.90;99.90;;;;;;5048864;28;20889;-53
2020/12/30 10:26:40;;;;;;;4.67;2.57;;;5.20;99.90;;;;;;5049642;28;20533;-53
2020/12/30 10:29:07;;;;;;;6.10;2.33;;;5.50;99.90;;;;;;5050315;28;20487;-53
2020/12/30 10:31:33;;;;;;;5.57;2.13;;;5.40;99.90;;;;;;5048977;28;20516;-53
2020/12/30 10:34:03;;;;;;;2.63;2.30;;;5.50;99.90;;;;;;5048636;28;20467;-53
2020/12/30 10:36:32;;;;;;;3.57;2.10;;;5.50;99.90;;;;;;5049890;28;20487;-53
2020/12/30 10:39:03;;;;;;;3.17;1.90;;;6.10;99.90;;;;;;5049230;28;20544;-53
2020/12/30 10:41:29;;;;;;;2.60;1.90;;;5.80;99.90;;;;;;5050116;28;20897;-52
2020/12/30 10:43:56;;;;;;;3.00;1.87;;;6.20;99.90;;;;;;5048541;28;20589;-53
2020/12/30 10:46:24;;;;;;;5.50;2.50;;;6.20;99.90;;;;;;5049283;28;20444;-53
2020/12/30 10:48:51;;;;;;;2.60;2.13;;;6.10;99.90;;;;;;5049804;28;20753;-53
2020/12/30 10:51:18;;;;;;;2.57;2.00;;;5.90;99.90;;;;;;5049659;28;20893;-53
2020/12/30 10:53:45;;;;;;;2.63;1.77;;;5.70;99.90;;;;;;5049586;28;20805;-53
2020/12/30 10:56:13;;;;;;;3.13;2.00;;;5.60;99.90;;;;;;5049588;28;20476;-52
2020/12/30 10:58:40;;;;;;;2.83;1.73;;;5.50;99.90;;;;;;5049528;28;20526;-54
2020/12/30 11:01:08;;;;;;;3.27;1.83;;;5.40;99.90;;;;;;5044514;28;20459;-53
2020/12/30 11:03:35;;;;;;;7.87;2.30;;;5.50;99.90;;;;;;5049161;28;20444;-54
2020/12/30 11:06:02;;;;;;;4.80;1.93;;;5.30;99.90;;;;;;5045577;28;20840;-53
2020/12/30 11:08:29;;;;;;;5.17;2.00;;;5.30;99.90;;;;;;5041951;28;20836;-53
2020/12/30 11:10:57;;;;;;;2.60;1.30;;;5.40;99.90;;;;;;5049341;28;20956;-54
2020/12/30 11:13:24;;;;;;;3.90;1.87;;;5.60;99.90;;;;;;5049424;28;20460;-53
2020/12/30 11:15:50;;;;;;;3.60;1.90;;;5.50;99.90;;;;;;5049185;28;20468;-53
2020/12/30 11:18:17;;;;;;;3.97;1.70;;;5.30;99.90;;;;;;5048326;28;20449;-53
2020/12/30 11:20:44;;;;;;;4.27;1.97;;;5.40;99.90;;;;;;5048661;28;20819;-54
2020/12/30 11:23:12;;;;;;;3.07;2.30;;;5.30;99.90;;;;;;5049949;28;20501;-54
2020/12/30 11:25:40;;;;;;;2.37;2.17;;;5.30;99.90;;;;;;5049142;28;20498;-54
2020/12/30 11:28:07;;;;;;;3.00;2.07;;;5.30;99.90;;;;;;5048783;28;20485;-54
2020/12/30 11:30:33;;;;;;;2.70;1.70;;;5.00;99.90;;;;;;5048831;28;20513;-54
2020/12/30 11:33:00;;;;;;;2.70;1.67;;;4.80;99.90;;;;;;5049937;28;20455;-54
2020/12/30 11:35:27;;;;;;;3.67;2.33;;;4.90;99.90;;;;;;5049650;28;20483;-54
2020/12/30 11:37:54;;;;;;;4.07;2.70;;;5.10;99.90;;;;;;5049959;28;20443;-54
2020/12/30 11:40:21;;;;;;;4.23;2.30;;;4.80;99.90;;;;;;5046490;28;20449;-54
2020/12/30 11:42:48;;;;;;;5.33;2.70;;;4.90;99.90;;;;;;5046812;28;20451;-54
2020/12/30 11:45:14;;;;;;;3.47;2.13;;;5.00;99.90;;;;;;5048585;28;20463;-53
2020/12/30 11:47:41;;;;;;;4.27;2.40;;;5.40;99.90;;;;;;5048214;28;20448;-53
2020/12/30 11:50:07;;;;;;;5.07;2.30;;;5.40;99.90;;;;;;5048755;28;20451;-53
2020/12/30 11:52:34;;;;;;;7.23;2.70;;;5.20;99.90;;;;;;5049577;28;20471;-53
2020/12/30 11:55:01;;;;;;;4.27;2.33;;;4.80;99.90;;;;;;5049072;28;20861;-54
2020/12/30 11:57:28;;;;;;;8.63;2.50;;;4.60;99.90;;;;;;5049190;28;20946;-53
2020/12/30 11:59:55;;;;;;;3.83;2.30;;;4.70;99.90;;;;;;5048533;28;20534;-53
2020/12/30 12:02:22;;;;;;;2.80;2.40;;;4.90;99.90;;;;;;5048464;28;20448;-54
2020/12/30 12:04:48;;;;;;;4.30;2.53;;;5.00;99.90;;;;;;5047814;28;20471;-54
2020/12/30 12:07:15;;;;;;;9.00;5.20;;;5.10;99.90;;;;;;5048425;28;20863;-53
2020/12/30 12:09:41;;;;;;;6.23;3.60;;;5.20;99.90;;;;;;5049094;28;20857;-53
2020/12/30 12:12:08;;;;;;;6.83;3.00;;;5.00;99.90;;;;;;5048939;28;20456;-54
2020/12/30 12:14:35;;;;;;;7.80;3.67;;;4.90;99.90;;;;;;5048263;28;20525;-54
2020/12/30 12:17:01;;;;;;;10.37;4.90;;;4.80;99.90;;;;;;5040588;28;20957;-54
2020/12/30 12:19:28;;;;;;;6.03;3.97;;;4.60;99.90;;;;;;5048472;28;20444;-53
2020/12/30 12:21:54;;;;;;;6.97;4.53;;;4.20;99.90;;;;;;5049003;28;20550;-54
2020/12/30 12:24:21;;;;;;;8.57;4.80;;;4.30;99.90;;;;;;5048495;28;20501;-54
2020/12/30 12:26:47;;;;;;;6.90;4.93;;;4.20;99.90;;;;;;5049321;28;20455;-54
2020/12/30 12:29:42;;;;;;;5.90;4.00;;;4.20;99.90;;;;;;5050523;28;20506;-53
2020/12/30 12:32:10;;;;;;;6.67;4.50;;;4.10;99.90;;;;;;5050655;28;20542;-53
2020/12/30 12:34:38;;;;;;;5.40;4.13;;;4.20;99.90;;;;;;5052274;28;20471;-53
2020/12/30 12:37:06;;;;;;;6.17;4.47;;;4.40;99.90;;;;;;5052587;28;20447;-53
2020/12/30 12:39:33;;;;;;;5.80;3.27;;;4.40;99.90;;;;;;5052549;28;20444;-53
2020/12/30 12:42:00;;;;;;;4.30;3.23;;;4.40;99.90;;;;;;5044527;28;20483;-54
2020/12/30 12:44:26;;;;;;;4.80;3.30;;;4.30;99.90;;;;;;5052489;28;20839;-53
2020/12/30 12:46:53;;;;;;;5.40;3.80;;;4.10;99.90;;;;;;5052523;28;20451;-53
2020/12/30 12:49:20;;;;;;;5.47;4.17;;;3.90;99.90;;;;;;5052026;28;20486;-54
2020/12/30 12:51:47;;;;;;;5.50;3.90;;;4.00;99.90;;;;;;5052493;28;20452;-53
2020/12/30 12:54:14;;;;;;;11.30;5.20;;;4.00;99.90;;;;;;5050483;28;20479;-53
2020/12/30 12:56:41;;;;;;;8.23;5.27;;;3.90;99.90;;;;;;5044190;28;20446;-53
2020/12/30 12:59:08;;;;;;;8.93;5.30;;;3.70;99.90;;;;;;5052278;28;20468;-55
2020/12/30 13:01:35;;;;;;;9.73;6.07;;;3.70;99.90;;;;;;5052560;28;20984;-53